Airport Name : Entebbe Intl

Other Name : Entebbe Intl

ICAO : HUEN

IATA : EBB

FAA :

Latitude : 0.042386

Longitude : 32.443503

Country : Uganda

Local Date and Time : 20 Jul 2024 18:13

 

TAF (Terminal Aerodrome Forecast)

TAF HUEN 201100Z 2012/2118 36012KT 9000 FEW023 FEW025CB TEMPO 2023/2102 -RA SCT018 FEW020CB BECMG 2108/2111 18010KT 8000 RA SCT019 FEW021CB

 

METAR (METeorological Aerodrome Report)

HUEN 201430Z 14009KT 9999 FEW026 FEW028CB 25/20 Q1015

HUEN 201400Z 14010KT 9999 FEW026 FEW028CB 25/20 Q1015

HUEN 201330Z 17012KT 9999 FEW025 FEW027CB 26/19 Q1015

HUEN 201300Z 15010KT 9999 FEW025 FEW027CB 26/18 Q1016

HUEN 201230Z 16012KT 9999 FEW024 FEW026CB 26/18 Q1016

HUEN 201200Z 15010KT 9999 FEW024 FEW026CB 26/19 Q1017

HUEN 201130Z 15007KT 9999 FEW023 FEW025CB 27/17 Q1017